sensor_id;sensor_type;location;lat;lon;timestamp;P1;durP1;ratioP1;P2;durP2;ratioP2
2009;SDS011;1008;47.404;8.502;2023-02-07T00:00:11;10.93;;;4.37;;
2009;SDS011;1008;47.404;8.502;2023-02-07T00:02:41;6.50;;;3.57;;
2009;SDS011;1008;47.404;8.502;2023-02-07T00:05:08;5.50;;;2.70;;
2009;SDS011;1008;47.404;8.502;2023-02-07T00:07:35;5.50;;;3.03;;
2009;SDS011;1008;47.404;8.502;2023-02-07T00:10:03;4.73;;;3.20;;
2009;SDS011;1008;47.404;8.502;2023-02-07T00:12:31;7.37;;;3.93;;
2009;SDS011;1008;47.404;8.502;2023-02-07T00:14:58;7.40;;;4.23;;
2009;SDS011;1008;47.404;8.502;2023-02-07T00:17:27;7.77;;;3.90;;
2009;SDS011;1008;47.404;8.502;2023-02-07T00:19:54;7.33;;;4.43;;
2009;SDS011;1008;47.404;8.502;2023-02-07T00:22:21;7.47;;;3.93;;
2009;SDS011;1008;47.404;8.502;2023-02-07T00:24:47;5.97;;;3.73;;
2009;SDS011;1008;47.404;8.502;2023-02-07T00:27:16;9.10;;;4.27;;
2009;SDS011;1008;47.404;8.502;2023-02-07T00:29:43;7.90;;;3.90;;
2009;SDS011;1008;47.404;8.502;2023-02-07T00:32:09;8.37;;;4.60;;
2009;SDS011;1008;47.404;8.502;2023-02-07T00:34:36;6.33;;;3.57;;
2009;SDS011;1008;47.404;8.502;2023-02-07T00:37:03;4.47;;;3.73;;
2009;SDS011;1008;47.404;8.502;2023-02-07T00:39:31;10.10;;;3.83;;
2009;SDS011;1008;47.404;8.502;2023-02-07T00:41:58;10.10;;;3.37;;
2009;SDS011;1008;47.404;8.502;2023-02-07T00:44:26;6.80;;;4.33;;
2009;SDS011;1008;47.404;8.502;2023-02-07T00:46:53;4.80;;;4.10;;
2009;SDS011;1008;47.404;8.502;2023-02-07T00:49:20;5.23;;;3.13;;
2009;SDS011;1008;47.404;8.502;2023-02-07T00:51:46;5.33;;;3.57;;
2009;SDS011;1008;47.404;8.502;2023-02-07T00:54:13;7.37;;;5.07;;
2009;SDS011;1008;47.404;8.502;2023-02-07T00:56:40;5.50;;;4.33;;
2009;SDS011;1008;47.404;8.502;2023-02-07T00:59:07;6.33;;;4.00;;
2009;SDS011;1008;47.404;8.502;2023-02-07T01:01:35;6.73;;;4.50;;
2009;SDS011;1008;47.404;8.502;2023-02-07T01:04:02;10.43;;;5.00;;
2009;SDS011;1008;47.404;8.502;2023-02-07T01:06:29;5.90;;;3.40;;
2009;SDS011;1008;47.404;8.502;2023-02-07T01:08:58;8.60;;;4.80;;
2009;SDS011;1008;47.404;8.502;2023-02-07T01:11:25;8.23;;;3.93;;
2009;SDS011;1008;47.404;8.502;2023-02-07T01:13:53;4.37;;;3.60;;
2009;SDS011;1008;47.404;8.502;2023-02-07T01:16:21;5.90;;;4.60;;
2009;SDS011;1008;47.404;8.502;2023-02-07T01:18:50;5.73;;;5.07;;
2009;SDS011;1008;47.404;8.502;2023-02-07T01:21:17;10.63;;;4.57;;
2009;SDS011;1008;47.404;8.502;2023-02-07T01:23:45;8.00;;;5.43;;
2009;SDS011;1008;47.404;8.502;2023-02-07T01:26:13;5.30;;;3.53;;
2009;SDS011;1008;47.404;8.502;2023-02-07T01:28:40;9.07;;;5.63;;
2009;SDS011;1008;47.404;8.502;2023-02-07T01:31:07;6.27;;;4.77;;
2009;SDS011;1008;47.404;8.502;2023-02-07T01:33:35;9.60;;;4.80;;
2009;SDS011;1008;47.404;8.502;2023-02-07T01:36:07;9.70;;;4.10;;
2009;SDS011;1008;47.404;8.502;2023-02-07T01:38:36;5.30;;;3.30;;
2009;SDS011;1008;47.404;8.502;2023-02-07T01:41:03;5.40;;;3.90;;
2009;SDS011;1008;47.404;8.502;2023-02-07T01:43:30;7.77;;;3.70;;
2009;SDS011;1008;47.404;8.502;2023-02-07T01:45:57;4.90;;;3.50;;
2009;SDS011;1008;47.404;8.502;2023-02-07T01:48:25;10.63;;;4.43;;
2009;SDS011;1008;47.404;8.502;2023-02-07T01:50:56;8.17;;;4.47;;
2009;SDS011;1008;47.404;8.502;2023-02-07T01:53:26;7.07;;;4.63;;
2009;SDS011;1008;47.404;8.502;2023-02-07T01:55:55;6.97;;;4.63;;
2009;SDS011;1008;47.404;8.502;2023-02-07T01:58:25;7.43;;;5.07;;
2009;SDS011;1008;47.404;8.502;2023-02-07T02:00:52;4.90;;;3.73;;
2009;SDS011;1008;47.404;8.502;2023-02-07T02:03:20;10.47;;;4.77;;
2009;SDS011;1008;47.404;8.502;2023-02-07T02:05:47;9.53;;;4.73;;
2009;SDS011;1008;47.404;8.502;2023-02-07T02:08:18;3.33;;;2.60;;
2009;SDS011;1008;47.404;8.502;2023-02-07T02:10:50;6.57;;;4.07;;
2009;SDS011;1008;47.404;8.502;2023-02-07T02:13:27;7.70;;;4.90;;
2009;SDS011;1008;47.404;8.502;2023-02-07T02:16:00;4.43;;;4.03;;
2009;SDS011;1008;47.404;8.502;2023-02-07T02:18:34;4.47;;;3.70;;
2009;SDS011;1008;47.404;8.502;2023-02-07T02:21:31;4.67;;;3.37;;
2009;SDS011;1008;47.404;8.502;2023-02-07T02:27:39;5.33;;;2.70;;
2009;SDS011;1008;47.404;8.502;2023-02-07T02:33:20;4.43;;;4.03;;
2009;SDS011;1008;47.404;8.502;2023-02-07T02:35:55;6.67;;;3.50;;
2009;SDS011;1008;47.404;8.502;2023-02-07T02:38:30;5.53;;;4.33;;
2009;SDS011;1008;47.404;8.502;2023-02-07T02:41:02;8.90;;;5.43;;
2009;SDS011;1008;47.404;8.502;2023-02-07T02:43:34;9.90;;;5.20;;
2009;SDS011;1008;47.404;8.502;2023-02-07T02:46:08;7.47;;;4.17;;
2009;SDS011;1008;47.404;8.502;2023-02-07T02:48:40;9.87;;;5.50;;
2009;SDS011;1008;47.404;8.502;2023-02-07T02:51:08;7.67;;;4.93;;
2009;SDS011;1008;47.404;8.502;2023-02-07T02:53:35;8.93;;;5.20;;
2009;SDS011;1008;47.404;8.502;2023-02-07T02:56:07;6.07;;;4.60;;
2009;SDS011;1008;47.404;8.502;2023-02-07T02:58:56;5.43;;;3.87;;
2009;SDS011;1008;47.404;8.502;2023-02-07T03:01:32;9.30;;;4.03;;
2009;SDS011;1008;47.404;8.502;2023-02-07T03:04:15;6.00;;;4.50;;
2009;SDS011;1008;47.404;8.502;2023-02-07T03:07:10;7.83;;;4.73;;
2009;SDS011;1008;47.404;8.502;2023-02-07T03:09:47;4.97;;;3.33;;
2009;SDS011;1008;47.404;8.502;2023-02-07T03:12:22;8.90;;;4.40;;
2009;SDS011;1008;47.404;8.502;2023-02-07T03:14:53;9.10;;;5.37;;
2009;SDS011;1008;47.404;8.502;2023-02-07T03:17:27;6.57;;;4.27;;
2009;SDS011;1008;47.404;8.502;2023-02-07T03:20:03;7.73;;;4.33;;
2009;SDS011;1008;47.404;8.502;2023-02-07T03:22:33;7.07;;;4.90;;
2009;SDS011;1008;47.404;8.502;2023-02-07T03:25:02;7.23;;;4.27;;
2009;SDS011;1008;47.404;8.502;2023-02-07T03:27:30;8.50;;;4.60;;
2009;SDS011;1008;47.404;8.502;2023-02-07T03:29:59;6.13;;;4.17;;
2009;SDS011;1008;47.404;8.502;2023-02-07T03:32:30;8.37;;;4.13;;
2009;SDS011;1008;47.404;8.502;2023-02-07T03:35:04;9.27;;;5.57;;
2009;SDS011;1008;47.404;8.502;2023-02-07T03:37:35;7.67;;;4.60;;
2009;SDS011;1008;47.404;8.502;2023-02-07T03:40:05;8.77;;;3.73;;
2009;SDS011;1008;47.404;8.502;2023-02-07T03:42:34;5.90;;;4.50;;
2009;SDS011;1008;47.404;8.502;2023-02-07T03:45:04;4.90;;;3.43;;
2009;SDS011;1008;47.404;8.502;2023-02-07T03:47:33;9.03;;;4.60;;
2009;SDS011;1008;47.404;8.502;2023-02-07T03:50:00;7.10;;;4.13;;
2009;SDS011;1008;47.404;8.502;2023-02-07T03:52:28;8.27;;;5.83;;
2009;SDS011;1008;47.404;8.502;2023-02-07T03:54:55;6.40;;;3.90;;
2009;SDS011;1008;47.404;8.502;2023-02-07T03:57:22;8.23;;;5.43;;
2009;SDS011;1008;47.404;8.502;2023-02-07T03:59:48;6.70;;;4.07;;
2009;SDS011;1008;47.404;8.502;2023-02-07T04:02:15;7.90;;;4.30;;
2009;SDS011;1008;47.404;8.502;2023-02-07T04:04:42;7.00;;;3.80;;
2009;SDS011;1008;47.404;8.502;2023-02-07T04:07:09;5.20;;;4.70;;
2009;SDS011;1008;47.404;8.502;2023-02-07T04:09:37;8.07;;;4.83;;
2009;SDS011;1008;47.404;8.502;2023-02-07T04:12:04;12.00;;;5.63;;
2009;SDS011;1008;47.404;8.502;2023-02-07T04:14:32;6.73;;;4.60;;
2009;SDS011;1008;47.404;8.502;2023-02-07T04:16:58;6.93;;;4.43;;
2009;SDS011;1008;47.404;8.502;2023-02-07T04:19:25;5.40;;;4.17;;
2009;SDS011;1008;47.404;8.502;2023-02-07T04:21:52;8.90;;;5.30;;
2009;SDS011;1008;47.404;8.502;2023-02-07T04:24:19;4.70;;;4.30;;
2009;SDS011;1008;47.404;8.502;2023-02-07T04:26:47;10.50;;;5.73;;
2009;SDS011;1008;47.404;8.502;2023-02-07T04:29:13;6.47;;;5.30;;
2009;SDS011;1008;47.404;8.502;2023-02-07T04:31:40;10.17;;;5.53;;
2009;SDS011;1008;47.404;8.502;2023-02-07T04:34:07;12.53;;;5.57;;
2009;SDS011;1008;47.404;8.502;2023-02-07T04:36:35;10.37;;;5.80;;
2009;SDS011;1008;47.404;8.502;2023-02-07T04:39:02;6.50;;;5.03;;
2009;SDS011;1008;47.404;8.502;2023-02-07T04:41:29;9.10;;;5.00;;
2009;SDS011;1008;47.404;8.502;2023-02-07T04:43:57;8.20;;;5.20;;
2009;SDS011;1008;47.404;8.502;2023-02-07T04:46:24;13.53;;;5.80;;
2009;SDS011;1008;47.404;8.502;2023-02-07T04:48:52;13.50;;;5.90;;
2009;SDS011;1008;47.404;8.502;2023-02-07T04:51:18;12.10;;;6.03;;
2009;SDS011;1008;47.404;8.502;2023-02-07T04:53:45;10.50;;;5.83;;
2009;SDS011;1008;47.404;8.502;2023-02-07T04:56:12;6.57;;;5.50;;
2009;SDS011;1008;47.404;8.502;2023-02-07T04:58:39;9.10;;;5.87;;
2009;SDS011;1008;47.404;8.502;2023-02-07T05:01:07;6.80;;;4.30;;
2009;SDS011;1008;47.404;8.502;2023-02-07T05:03:34;9.13;;;5.10;;
2009;SDS011;1008;47.404;8.502;2023-02-07T05:06:00;9.63;;;6.43;;
2009;SDS011;1008;47.404;8.502;2023-02-07T05:08:27;10.73;;;5.83;;
2009;SDS011;1008;47.404;8.502;2023-02-07T05:10:54;9.87;;;5.47;;
2009;SDS011;1008;47.404;8.502;2023-02-07T05:13:21;10.30;;;5.37;;
2009;SDS011;1008;47.404;8.502;2023-02-07T05:15:49;9.43;;;6.87;;
2009;SDS011;1008;47.404;8.502;2023-02-07T05:18:17;10.63;;;6.83;;
2009;SDS011;1008;47.404;8.502;2023-02-07T05:20:45;10.47;;;6.43;;
2009;SDS011;1008;47.404;8.502;2023-02-07T05:23:12;7.73;;;4.80;;
2009;SDS011;1008;47.404;8.502;2023-02-07T05:25:39;11.07;;;6.23;;
2009;SDS011;1008;47.404;8.502;2023-02-07T05:28:06;12.63;;;6.80;;
2009;SDS011;1008;47.404;8.502;2023-02-07T05:30:33;13.67;;;7.33;;
2009;SDS011;1008;47.404;8.502;2023-02-07T05:33:00;10.60;;;6.50;;
2009;SDS011;1008;47.404;8.502;2023-02-07T05:35:30;11.30;;;5.80;;
2009;SDS011;1008;47.404;8.502;2023-02-07T05:37:57;9.83;;;6.03;;
2009;SDS011;1008;47.404;8.502;2023-02-07T05:40:24;10.40;;;5.77;;
2009;SDS011;1008;47.404;8.502;2023-02-07T05:42:51;36.30;;;16.50;;
2009;SDS011;1008;47.404;8.502;2023-02-07T05:45:18;7.77;;;6.13;;
2009;SDS011;1008;47.404;8.502;2023-02-07T05:47:45;14.30;;;5.73;;
2009;SDS011;1008;47.404;8.502;2023-02-07T05:50:12;14.17;;;6.80;;
2009;SDS011;1008;47.404;8.502;2023-02-07T05:52:41;8.23;;;5.13;;
2009;SDS011;1008;47.404;8.502;2023-02-07T05:55:08;12.07;;;7.40;;
2009;SDS011;1008;47.404;8.502;2023-02-07T05:57:35;13.53;;;6.63;;
2009;SDS011;1008;47.404;8.502;2023-02-07T06:00:02;10.67;;;5.40;;
2009;SDS011;1008;47.404;8.502;2023-02-07T06:02:30;9.63;;;5.77;;
2009;SDS011;1008;47.404;8.502;2023-02-07T06:04:57;9.50;;;6.43;;
2009;SDS011;1008;47.404;8.502;2023-02-07T06:07:23;10.93;;;5.17;;
2009;SDS011;1008;47.404;8.502;2023-02-07T06:09:52;12.43;;;6.80;;
2009;SDS011;1008;47.404;8.502;2023-02-07T06:12:18;13.83;;;6.30;;
2009;SDS011;1008;47.404;8.502;2023-02-07T06:14:45;9.53;;;5.73;;
2009;SDS011;1008;47.404;8.502;2023-02-07T06:17:12;7.50;;;5.50;;
2009;SDS011;1008;47.404;8.502;2023-02-07T06:19:39;11.47;;;6.90;;
2009;SDS011;1008;47.404;8.502;2023-02-07T06:22:05;9.97;;;5.70;;
2009;SDS011;1008;47.404;8.502;2023-02-07T06:24:32;8.87;;;5.57;;
2009;SDS011;1008;47.404;8.502;2023-02-07T06:27:00;12.67;;;7.53;;
2009;SDS011;1008;47.404;8.502;2023-02-07T06:29:27;10.90;;;5.73;;
2009;SDS011;1008;47.404;8.502;2023-02-07T06:31:54;9.00;;;5.23;;
2009;SDS011;1008;47.404;8.502;2023-02-07T06:34:20;9.43;;;5.20;;
2009;SDS011;1008;47.404;8.502;2023-02-07T06:36:47;7.93;;;6.07;;
2009;SDS011;1008;47.404;8.502;2023-02-07T06:39:14;11.67;;;5.73;;
2009;SDS011;1008;47.404;8.502;2023-02-07T06:41:41;20.33;;;6.57;;
2009;SDS011;1008;47.404;8.502;2023-02-07T06:44:09;10.53;;;6.20;;
2009;SDS011;1008;47.404;8.502;2023-02-07T06:46:36;7.77;;;4.93;;
2009;SDS011;1008;47.404;8.502;2023-02-07T06:49:03;14.90;;;6.50;;
2009;SDS011;1008;47.404;8.502;2023-02-07T06:51:30;10.97;;;7.30;;
2009;SDS011;1008;47.404;8.502;2023-02-07T06:53:56;14.27;;;8.60;;
2009;SDS011;1008;47.404;8.502;2023-02-07T06:56:23;12.60;;;7.07;;
2009;SDS011;1008;47.404;8.502;2023-02-07T06:58:50;12.03;;;6.33;;
2009;SDS011;1008;47.404;8.502;2023-02-07T07:01:18;8.60;;;6.17;;
2009;SDS011;1008;47.404;8.502;2023-02-07T07:03:46;9.03;;;6.00;;
2009;SDS011;1008;47.404;8.502;2023-02-07T07:06:13;6.97;;;4.90;;
2009;SDS011;1008;47.404;8.502;2023-02-07T07:08:40;10.70;;;7.10;;
2009;SDS011;1008;47.404;8.502;2023-02-07T07:11:06;13.00;;;7.27;;
2009;SDS011;1008;47.404;8.502;2023-02-07T07:13:33;14.70;;;6.93;;
2009;SDS011;1008;47.404;8.502;2023-02-07T07:16:00;14.10;;;8.23;;
2009;SDS011;1008;47.404;8.502;2023-02-07T07:18:28;9.60;;;6.00;;
2009;SDS011;1008;47.404;8.502;2023-02-07T07:20:55;9.90;;;5.07;;
2009;SDS011;1008;47.404;8.502;2023-02-07T07:23:22;11.47;;;6.50;;
2009;SDS011;1008;47.404;8.502;2023-02-07T07:25:49;8.33;;;4.60;;
2009;SDS011;1008;47.404;8.502;2023-02-07T07:28:15;15.50;;;7.70;;
2009;SDS011;1008;47.404;8.502;2023-02-07T07:30:42;8.93;;;5.87;;
2009;SDS011;1008;47.404;8.502;2023-02-07T07:33:09;9.67;;;6.00;;
2009;SDS011;1008;47.404;8.502;2023-02-07T07:35:37;15.93;;;6.50;;
2009;SDS011;1008;47.404;8.502;2023-02-07T07:38:04;17.50;;;7.00;;
2009;SDS011;1008;47.404;8.502;2023-02-07T07:40:30;14.10;;;6.13;;
2009;SDS011;1008;47.404;8.502;2023-02-07T07:42:57;12.00;;;6.83;;
2009;SDS011;1008;47.404;8.502;2023-02-07T07:45:24;8.23;;;6.30;;
2009;SDS011;1008;47.404;8.502;2023-02-07T07:47:51;11.40;;;6.77;;
2009;SDS011;1008;47.404;8.502;2023-02-07T07:50:18;11.03;;;6.90;;
2009;SDS011;1008;47.404;8.502;2023-02-07T07:52:46;8.17;;;4.73;;
2009;SDS011;1008;47.404;8.502;2023-02-07T07:55:13;13.47;;;7.60;;
2009;SDS011;1008;47.404;8.502;2023-02-07T07:57:40;16.57;;;7.00;;
2009;SDS011;1008;47.404;8.502;2023-02-07T08:00:07;14.27;;;6.73;;
2009;SDS011;1008;47.404;8.502;2023-02-07T08:02:35;13.60;;;6.70;;
2009;SDS011;1008;47.404;8.502;2023-02-07T08:05:02;11.47;;;7.20;;
2009;SDS011;1008;47.404;8.502;2023-02-07T08:07:29;11.40;;;6.50;;
2009;SDS011;1008;47.404;8.502;2023-02-07T08:09:57;13.30;;;6.33;;
2009;SDS011;1008;47.404;8.502;2023-02-07T08:12:24;10.60;;;6.60;;
2009;SDS011;1008;47.404;8.502;2023-02-07T08:14:51;13.07;;;6.90;;
2009;SDS011;1008;47.404;8.502;2023-02-07T08:17:18;11.97;;;6.53;;
2009;SDS011;1008;47.404;8.502;2023-02-07T08:19:44;11.37;;;5.97;;
2009;SDS011;1008;47.404;8.502;2023-02-07T08:22:11;12.57;;;6.73;;
2009;SDS011;1008;47.404;8.502;2023-02-07T08:24:39;13.40;;;7.13;;
2009;SDS011;1008;47.404;8.502;2023-02-07T08:27:08;15.20;;;6.40;;
2009;SDS011;1008;47.404;8.502;2023-02-07T08:29:34;11.83;;;6.77;;
2009;SDS011;1008;47.404;8.502;2023-02-07T08:32:01;11.47;;;6.43;;
2009;SDS011;1008;47.404;8.502;2023-02-07T08:34:29;13.37;;;8.10;;
2009;SDS011;1008;47.404;8.502;2023-02-07T08:37:01;11.63;;;6.80;;
2009;SDS011;1008;47.404;8.502;2023-02-07T08:39:28;18.97;;;7.13;;
2009;SDS011;1008;47.404;8.502;2023-02-07T08:41:55;11.67;;;7.30;;
2009;SDS011;1008;47.404;8.502;2023-02-07T08:44:23;15.43;;;6.83;;
2009;SDS011;1008;47.404;8.502;2023-02-07T08:46:50;14.03;;;7.97;;
2009;SDS011;1008;47.404;8.502;2023-02-07T08:49:17;10.83;;;7.63;;
2009;SDS011;1008;47.404;8.502;2023-02-07T08:51:44;11.33;;;6.47;;
2009;SDS011;1008;47.404;8.502;2023-02-07T08:54:11;12.53;;;8.00;;
2009;SDS011;1008;47.404;8.502;2023-02-07T08:56:38;15.37;;;7.10;;
2009;SDS011;1008;47.404;8.502;2023-02-07T08:59:05;12.93;;;6.67;;
2009;SDS011;1008;47.404;8.502;2023-02-07T09:01:33;13.10;;;7.23;;
2009;SDS011;1008;47.404;8.502;2023-02-07T09:03:59;16.47;;;8.20;;
2009;SDS011;1008;47.404;8.502;2023-02-07T09:06:26;12.50;;;7.20;;
2009;SDS011;1008;47.404;8.502;2023-02-07T09:08:53;12.13;;;8.10;;
2009;SDS011;1008;47.404;8.502;2023-02-07T09:11:20;17.23;;;7.63;;
2009;SDS011;1008;47.404;8.502;2023-02-07T09:13:47;15.33;;;7.80;;
2009;SDS011;1008;47.404;8.502;2023-02-07T09:16:14;15.13;;;7.80;;
2009;SDS011;1008;47.404;8.502;2023-02-07T09:18:42;13.97;;;7.87;;
2009;SDS011;1008;47.404;8.502;2023-02-07T09:21:09;9.87;;;7.10;;
2009;SDS011;1008;47.404;8.502;2023-02-07T09:23:35;12.60;;;7.50;;
2009;SDS011;1008;47.404;8.502;2023-02-07T09:26:03;16.80;;;8.70;;
2009;SDS011;1008;47.404;8.502;2023-02-07T09:28:31;14.57;;;7.60;;
2009;SDS011;1008;47.404;8.502;2023-02-07T09:30:58;19.97;;;7.83;;
2009;SDS011;1008;47.404;8.502;2023-02-07T09:33:25;16.43;;;7.80;;
2009;SDS011;1008;47.404;8.502;2023-02-07T09:35:55;13.20;;;6.93;;
2009;SDS011;1008;47.404;8.502;2023-02-07T09:38:22;15.90;;;8.53;;
2009;SDS011;1008;47.404;8.502;2023-02-07T09:40:50;14.67;;;7.80;;
2009;SDS011;1008;47.404;8.502;2023-02-07T09:43:23;16.37;;;7.90;;
2009;SDS011;1008;47.404;8.502;2023-02-07T09:45:58;20.17;;;8.37;;
2009;SDS011;1008;47.404;8.502;2023-02-07T09:48:31;18.77;;;11.17;;
2009;SDS011;1008;47.404;8.502;2023-02-07T09:51:09;23.07;;;11.20;;
2009;SDS011;1008;47.404;8.502;2023-02-07T09:53:39;16.23;;;9.67;;
2009;SDS011;1008;47.404;8.502;2023-02-07T09:56:10;20.93;;;9.50;;
2009;SDS011;1008;47.404;8.502;2023-02-07T09:58:39;17.80;;;9.63;;
2009;SDS011;1008;47.404;8.502;2023-02-07T10:01:10;13.30;;;7.87;;
2009;SDS011;1008;47.404;8.502;2023-02-07T10:03:42;20.10;;;11.07;;
2009;SDS011;1008;47.404;8.502;2023-02-07T10:06:19;12.70;;;8.80;;
2009;SDS011;1008;47.404;8.502;2023-02-07T10:08:52;10.83;;;6.93;;
2009;SDS011;1008;47.404;8.502;2023-02-07T10:11:23;13.70;;;8.03;;
2009;SDS011;1008;47.404;8.502;2023-02-07T10:14:00;15.27;;;8.10;;
2009;SDS011;1008;47.404;8.502;2023-02-07T10:16:43;13.97;;;8.23;;
2009;SDS011;1008;47.404;8.502;2023-02-07T10:19:20;16.43;;;9.27;;
2009;SDS011;1008;47.404;8.502;2023-02-07T10:21:59;15.20;;;8.03;;
2009;SDS011;1008;47.404;8.502;2023-02-07T10:24:37;14.63;;;8.97;;
2009;SDS011;1008;47.404;8.502;2023-02-07T10:27:20;11.13;;;8.07;;
2009;SDS011;1008;47.404;8.502;2023-02-07T10:29:54;15.87;;;7.40;;
2009;SDS011;1008;47.404;8.502;2023-02-07T10:32:25;14.20;;;8.53;;
2009;SDS011;1008;47.404;8.502;2023-02-07T10:34:54;18.10;;;8.30;;
2009;SDS011;1008;47.404;8.502;2023-02-07T10:37:27;13.87;;;8.77;;
2009;SDS011;1008;47.404;8.502;2023-02-07T10:39:58;15.10;;;8.67;;
2009;SDS011;1008;47.404;8.502;2023-02-07T10:42:29;15.23;;;8.07;;
2009;SDS011;1008;47.404;8.502;2023-02-07T10:44:58;11.47;;;6.60;;
2009;SDS011;1008;47.404;8.502;2023-02-07T10:47:25;15.40;;;8.00;;
2009;SDS011;1008;47.404;8.502;2023-02-07T10:49:54;21.17;;;7.27;;
2009;SDS011;1008;47.404;8.502;2023-02-07T10:52:28;12.13;;;7.83;;
2009;SDS011;1008;47.404;8.502;2023-02-07T10:55:00;15.27;;;7.50;;
2009;SDS011;1008;47.404;8.502;2023-02-07T10:57:28;13.03;;;8.30;;
2009;SDS011;1008;47.404;8.502;2023-02-07T10:59:56;13.53;;;8.17;;
2009;SDS011;1008;47.404;8.502;2023-02-07T11:02:39;16.57;;;8.27;;
2009;SDS011;1008;47.404;8.502;2023-02-07T11:05:26;13.80;;;9.17;;
2009;SDS011;1008;47.404;8.502;2023-02-07T11:07:57;13.07;;;8.57;;
2009;SDS011;1008;47.404;8.502;2023-02-07T11:10:26;16.37;;;8.63;;
2009;SDS011;1008;47.404;8.502;2023-02-07T11:12:57;15.50;;;8.50;;
2009;SDS011;1008;47.404;8.502;2023-02-07T11:15:26;15.77;;;8.30;;
2009;SDS011;1008;47.404;8.502;2023-02-07T11:17:59;13.33;;;8.37;;
2009;SDS011;1008;47.404;8.502;2023-02-07T11:20:27;13.83;;;8.33;;
2009;SDS011;1008;47.404;8.502;2023-02-07T11:22:57;14.57;;;8.07;;
2009;SDS011;1008;47.404;8.502;2023-02-07T11:25:26;16.50;;;9.30;;
2009;SDS011;1008;47.404;8.502;2023-02-07T11:27:55;14.30;;;8.67;;
2009;SDS011;1008;47.404;8.502;2023-02-07T11:30:22;14.30;;;7.07;;
2009;SDS011;1008;47.404;8.502;2023-02-07T11:32:56;14.63;;;8.80;;
2009;SDS011;1008;47.404;8.502;2023-02-07T11:35:24;10.70;;;7.50;;
2009;SDS011;1008;47.404;8.502;2023-02-07T11:37:58;19.50;;;10.60;;
2009;SDS011;1008;47.404;8.502;2023-02-07T11:40:27;19.30;;;9.87;;
2009;SDS011;1008;47.404;8.502;2023-02-07T11:43:00;17.60;;;9.13;;
2009;SDS011;1008;47.404;8.502;2023-02-07T11:45:29;17.20;;;8.40;;
2009;SDS011;1008;47.404;8.502;2023-02-07T11:47:58;12.80;;;8.40;;
2009;SDS011;1008;47.404;8.502;2023-02-07T11:50:27;15.37;;;9.00;;
2009;SDS011;1008;47.404;8.502;2023-02-07T11:52:57;15.63;;;7.93;;
2009;SDS011;1008;47.404;8.502;2023-02-07T11:55:27;18.30;;;8.00;;
2009;SDS011;1008;47.404;8.502;2023-02-07T11:57:59;14.20;;;8.40;;
2009;SDS011;1008;47.404;8.502;2023-02-07T12:00:32;13.70;;;8.47;;
2009;SDS011;1008;47.404;8.502;2023-02-07T12:03:02;19.60;;;9.80;;
2009;SDS011;1008;47.404;8.502;2023-02-07T12:05:33;14.23;;;8.43;;
2009;SDS011;1008;47.404;8.502;2023-02-07T12:08:05;19.10;;;9.60;;
2009;SDS011;1008;47.404;8.502;2023-02-07T12:10:38;15.30;;;9.63;;
2009;SDS011;1008;47.404;8.502;2023-02-07T12:13:10;21.67;;;11.20;;
2009;SDS011;1008;47.404;8.502;2023-02-07T12:15:42;18.30;;;10.00;;
2009;SDS011;1008;47.404;8.502;2023-02-07T12:18:15;21.33;;;10.63;;
2009;SDS011;1008;47.404;8.502;2023-02-07T12:20:52;14.03;;;8.33;;
2009;SDS011;1008;47.404;8.502;2023-02-07T12:23:24;16.50;;;8.77;;
2009;SDS011;1008;47.404;8.502;2023-02-07T12:25:59;18.70;;;10.50;;
2009;SDS011;1008;47.404;8.502;2023-02-07T12:28:32;15.80;;;9.20;;
2009;SDS011;1008;47.404;8.502;2023-02-07T12:31:05;20.40;;;9.93;;
2009;SDS011;1008;47.404;8.502;2023-02-07T12:33:41;16.83;;;9.87;;
2009;SDS011;1008;47.404;8.502;2023-02-07T12:36:13;19.00;;;10.40;;
2009;SDS011;1008;47.404;8.502;2023-02-07T12:38:47;15.57;;;8.80;;
2009;SDS011;1008;47.404;8.502;2023-02-07T12:41:20;16.60;;;9.60;;
2009;SDS011;1008;47.404;8.502;2023-02-07T12:43:51;25.90;;;8.27;;
2009;SDS011;1008;47.404;8.502;2023-02-07T12:46:30;18.37;;;10.17;;
2009;SDS011;1008;47.404;8.502;2023-02-07T12:49:05;15.37;;;9.07;;
2009;SDS011;1008;47.404;8.502;2023-02-07T12:52:02;14.40;;;7.90;;
2009;SDS011;1008;47.404;8.502;2023-02-07T12:54:46;18.87;;;10.17;;
2009;SDS011;1008;47.404;8.502;2023-02-07T12:57:22;17.67;;;9.13;;
2009;SDS011;1008;47.404;8.502;2023-02-07T12:59:56;12.63;;;8.13;;
2009;SDS011;1008;47.404;8.502;2023-02-07T13:02:33;18.70;;;9.17;;
2009;SDS011;1008;47.404;8.502;2023-02-07T13:08:00;19.77;;;11.00;;
2009;SDS011;1008;47.404;8.502;2023-02-07T13:10:41;20.80;;;10.43;;
2009;SDS011;1008;47.404;8.502;2023-02-07T13:13:15;17.53;;;10.30;;
2009;SDS011;1008;47.404;8.502;2023-02-07T13:15:49;19.83;;;9.53;;
2009;SDS011;1008;47.404;8.502;2023-02-07T13:18:22;17.40;;;10.10;;
2009;SDS011;1008;47.404;8.502;2023-02-07T13:20:56;19.90;;;11.80;;
2009;SDS011;1008;47.404;8.502;2023-02-07T13:23:31;22.83;;;11.93;;
2009;SDS011;1008;47.404;8.502;2023-02-07T13:26:04;17.20;;;10.67;;
2009;SDS011;1008;47.404;8.502;2023-02-07T13:28:37;15.27;;;9.70;;
2009;SDS011;1008;47.404;8.502;2023-02-07T13:31:08;14.30;;;8.80;;
2009;SDS011;1008;47.404;8.502;2023-02-07T13:33:38;16.63;;;9.47;;
2009;SDS011;1008;47.404;8.502;2023-02-07T13:36:10;14.33;;;8.60;;
2009;SDS011;1008;47.404;8.502;2023-02-07T13:41:33;18.10;;;10.30;;
2009;SDS011;1008;47.404;8.502;2023-02-07T13:44:09;16.97;;;10.00;;
2009;SDS011;1008;47.404;8.502;2023-02-07T13:46:48;13.43;;;8.90;;
2009;SDS011;1008;47.404;8.502;2023-02-07T13:49:28;14.07;;;7.90;;
2009;SDS011;1008;47.404;8.502;2023-02-07T13:52:08;15.77;;;8.80;;
2009;SDS011;1008;47.404;8.502;2023-02-07T13:54:40;14.80;;;8.50;;
2009;SDS011;1008;47.404;8.502;2023-02-07T13:57:21;15.40;;;9.33;;
2009;SDS011;1008;47.404;8.502;2023-02-07T14:00:22;17.70;;;8.73;;
2009;SDS011;1008;47.404;8.502;2023-02-07T14:02:51;12.70;;;8.50;;
2009;SDS011;1008;47.404;8.502;2023-02-07T14:05:21;18.87;;;10.83;;
2009;SDS011;1008;47.404;8.502;2023-02-07T14:07:54;17.10;;;9.60;;
2009;SDS011;1008;47.404;8.502;2023-02-07T14:10:40;14.03;;;8.80;;
2009;SDS011;1008;47.404;8.502;2023-02-07T14:13:20;13.83;;;8.50;;
2009;SDS011;1008;47.404;8.502;2023-02-07T14:15:57;13.93;;;8.03;;
2009;SDS011;1008;47.404;8.502;2023-02-07T14:21:26;15.47;;;9.17;;
2009;SDS011;1008;47.404;8.502;2023-02-07T14:26:50;16.03;;;9.10;;
2009;SDS011;1008;47.404;8.502;2023-02-07T14:32:31;17.67;;;9.60;;
2009;SDS011;1008;47.404;8.502;2023-02-07T14:37:58;15.00;;;9.27;;
2009;SDS011;1008;47.404;8.502;2023-02-07T14:40:28;13.83;;;8.40;;
2009;SDS011;1008;47.404;8.502;2023-02-07T14:43:02;17.23;;;9.70;;
2009;SDS011;1008;47.404;8.502;2023-02-07T14:45:33;16.10;;;8.60;;
2009;SDS011;1008;47.404;8.502;2023-02-07T14:48:03;19.07;;;8.67;;
2009;SDS011;1008;47.404;8.502;2023-02-07T14:50:32;17.23;;;9.00;;
2009;SDS011;1008;47.404;8.502;2023-02-07T14:53:00;17.10;;;8.70;;
2009;SDS011;1008;47.404;8.502;2023-02-07T14:55:30;16.00;;;8.70;;
2009;SDS011;1008;47.404;8.502;2023-02-07T14:58:02;17.50;;;9.07;;
2009;SDS011;1008;47.404;8.502;2023-02-07T15:00:31;15.20;;;9.43;;
2009;SDS011;1008;47.404;8.502;2023-02-07T15:03:08;11.47;;;7.30;;
2009;SDS011;1008;47.404;8.502;2023-02-07T15:05:38;17.93;;;9.70;;
2009;SDS011;1008;47.404;8.502;2023-02-07T15:08:14;16.73;;;8.77;;
2009;SDS011;1008;47.404;8.502;2023-02-07T15:10:44;16.23;;;8.90;;
2009;SDS011;1008;47.404;8.502;2023-02-07T15:13:21;12.90;;;8.27;;
2009;SDS011;1008;47.404;8.502;2023-02-07T15:15:51;15.43;;;9.17;;
2009;SDS011;1008;47.404;8.502;2023-02-07T15:18:22;15.43;;;8.70;;
2009;SDS011;1008;47.404;8.502;2023-02-07T15:20:52;15.90;;;9.40;;
2009;SDS011;1008;47.404;8.502;2023-02-07T15:23:20;14.10;;;8.47;;
2009;SDS011;1008;47.404;8.502;2023-02-07T15:25:48;15.40;;;8.53;;
2009;SDS011;1008;47.404;8.502;2023-02-07T15:28:20;13.77;;;7.43;;
2009;SDS011;1008;47.404;8.502;2023-02-07T15:30:56;18.07;;;9.60;;
2009;SDS011;1008;47.404;8.502;2023-02-07T15:33:26;16.90;;;8.17;;
2009;SDS011;1008;47.404;8.502;2023-02-07T15:35:54;12.30;;;7.33;;
2009;SDS011;1008;47.404;8.502;2023-02-07T15:38:22;14.83;;;8.77;;
2009;SDS011;1008;47.404;8.502;2023-02-07T15:40:51;14.07;;;8.90;;
2009;SDS011;1008;47.404;8.502;2023-02-07T15:43:24;18.10;;;8.97;;
2009;SDS011;1008;47.404;8.502;2023-02-07T15:45:59;15.83;;;8.77;;